sensor_id;sensor_type;location;lat;lon;timestamp;P1;durP1;ratioP1;P2;durP2;ratioP2
72284;SDS011;60220;53.552;10.092;2023-02-03T00:01:45;10.18;;;4.10;;
72284;SDS011;60220;53.552;10.092;2023-02-03T00:04:10;9.77;;;3.78;;
72284;SDS011;60220;53.552;10.092;2023-02-03T00:06:37;8.02;;;4.28;;
72284;SDS011;60220;53.552;10.092;2023-02-03T00:09:04;6.85;;;4.32;;
72284;SDS011;60220;53.552;10.092;2023-02-03T00:11:31;12.10;;;5.47;;
72284;SDS011;60220;53.552;10.092;2023-02-03T00:13:57;10.57;;;5.00;;
72284;SDS011;60220;53.552;10.092;2023-02-03T00:16:23;7.35;;;4.30;;
72284;SDS011;60220;53.552;10.092;2023-02-03T00:18:49;7.50;;;4.90;;
72284;SDS011;60220;53.552;10.092;2023-02-03T00:21:15;9.00;;;5.10;;
72284;SDS011;60220;53.552;10.092;2023-02-03T00:23:41;9.57;;;5.10;;
72284;SDS011;60220;53.552;10.092;2023-02-03T00:26:09;9.48;;;5.75;;
72284;SDS011;60220;53.552;10.092;2023-02-03T00:28:36;10.35;;;6.43;;
72284;SDS011;60220;53.552;10.092;2023-02-03T00:31:04;13.38;;;7.15;;
72284;SDS011;60220;53.552;10.092;2023-02-03T00:33:38;14.18;;;7.57;;
72284;SDS011;60220;53.552;10.092;2023-02-03T00:36:04;13.52;;;8.38;;
72284;SDS011;60220;53.552;10.092;2023-02-03T00:38:30;18.75;;;9.10;;
72284;SDS011;60220;53.552;10.092;2023-02-03T00:40:57;16.25;;;8.70;;
72284;SDS011;60220;53.552;10.092;2023-02-03T00:43:26;17.08;;;9.18;;
72284;SDS011;60220;53.552;10.092;2023-02-03T00:45:52;18.55;;;9.65;;
72284;SDS011;60220;53.552;10.092;2023-02-03T00:48:18;17.45;;;10.20;;
72284;SDS011;60220;53.552;10.092;2023-02-03T00:50:45;19.80;;;9.98;;
72284;SDS011;60220;53.552;10.092;2023-02-03T00:53:11;17.73;;;9.60;;
72284;SDS011;60220;53.552;10.092;2023-02-03T00:55:37;25.13;;;10.80;;
72284;SDS011;60220;53.552;10.092;2023-02-03T00:58:05;18.70;;;9.32;;
72284;SDS011;60220;53.552;10.092;2023-02-03T01:00:32;21.60;;;11.85;;
72284;SDS011;60220;53.552;10.092;2023-02-03T01:03:00;17.58;;;9.70;;
72284;SDS011;60220;53.552;10.092;2023-02-03T01:05:26;24.17;;;8.43;;
72284;SDS011;60220;53.552;10.092;2023-02-03T01:07:54;19.80;;;9.32;;
72284;SDS011;60220;53.552;10.092;2023-02-03T01:10:20;24.48;;;9.43;;
72284;SDS011;60220;53.552;10.092;2023-02-03T01:12:46;15.80;;;7.75;;
72284;SDS011;60220;53.552;10.092;2023-02-03T01:15:12;22.33;;;9.85;;
72284;SDS011;60220;53.552;10.092;2023-02-03T01:17:39;22.83;;;10.40;;
72284;SDS011;60220;53.552;10.092;2023-02-03T01:20:05;20.80;;;11.15;;
72284;SDS011;60220;53.552;10.092;2023-02-03T01:22:31;22.73;;;9.77;;
72284;SDS011;60220;53.552;10.092;2023-02-03T01:24:57;25.88;;;11.18;;
72284;SDS011;60220;53.552;10.092;2023-02-03T01:27:23;18.63;;;10.50;;
72284;SDS011;60220;53.552;10.092;2023-02-03T01:29:49;27.95;;;12.07;;
72284;SDS011;60220;53.552;10.092;2023-02-03T01:32:15;20.85;;;11.23;;
72284;SDS011;60220;53.552;10.092;2023-02-03T01:34:45;33.28;;;11.98;;
72284;SDS011;60220;53.552;10.092;2023-02-03T01:37:11;27.77;;;11.30;;
72284;SDS011;60220;53.552;10.092;2023-02-03T01:39:38;27.52;;;9.77;;
72284;SDS011;60220;53.552;10.092;2023-02-03T01:42:04;19.40;;;8.65;;
72284;SDS011;60220;53.552;10.092;2023-02-03T01:44:40;17.45;;;7.75;;
72284;SDS011;60220;53.552;10.092;2023-02-03T01:47:13;22.90;;;10.13;;
72284;SDS011;60220;53.552;10.092;2023-02-03T01:49:43;25.58;;;10.10;;
72284;SDS011;60220;53.552;10.092;2023-02-03T01:52:14;21.65;;;9.95;;
72284;SDS011;60220;53.552;10.092;2023-02-03T01:54:42;27.55;;;9.68;;
72284;SDS011;60220;53.552;10.092;2023-02-03T01:57:11;20.75;;;8.38;;
72284;SDS011;60220;53.552;10.092;2023-02-03T01:59:41;16.77;;;8.63;;
72284;SDS011;60220;53.552;10.092;2023-02-03T02:02:07;17.92;;;7.63;;
72284;SDS011;60220;53.552;10.092;2023-02-03T02:04:36;8.45;;;4.35;;
72284;SDS011;60220;53.552;10.092;2023-02-03T02:07:10;14.63;;;8.38;;
72284;SDS011;60220;53.552;10.092;2023-02-03T02:09:36;19.00;;;8.77;;
72284;SDS011;60220;53.552;10.092;2023-02-03T02:12:02;26.83;;;8.63;;
72284;SDS011;60220;53.552;10.092;2023-02-03T02:14:28;17.15;;;9.15;;
72284;SDS011;60220;53.552;10.092;2023-02-03T02:16:56;18.23;;;7.30;;
72284;SDS011;60220;53.552;10.092;2023-02-03T02:19:39;20.90;;;8.80;;
72284;SDS011;60220;53.552;10.092;2023-02-03T02:22:23;18.50;;;7.90;;
72284;SDS011;60220;53.552;10.092;2023-02-03T02:31:01;19.75;;;8.27;;
72284;SDS011;60220;53.552;10.092;2023-02-03T02:33:46;15.57;;;7.57;;
72284;SDS011;60220;53.552;10.092;2023-02-03T02:36:22;15.35;;;7.60;;
72284;SDS011;60220;53.552;10.092;2023-02-03T02:38:53;14.13;;;7.50;;
72284;SDS011;60220;53.552;10.092;2023-02-03T02:41:25;12.35;;;6.82;;
72284;SDS011;60220;53.552;10.092;2023-02-03T02:44:00;21.17;;;7.50;;
72284;SDS011;60220;53.552;10.092;2023-02-03T02:46:33;17.77;;;6.85;;
72284;SDS011;60220;53.552;10.092;2023-02-03T02:49:05;14.38;;;7.07;;
72284;SDS011;60220;53.552;10.092;2023-02-03T02:51:37;18.67;;;7.30;;
72284;SDS011;60220;53.552;10.092;2023-02-03T02:54:08;13.32;;;6.90;;
72284;SDS011;60220;53.552;10.092;2023-02-03T02:56:39;18.45;;;6.88;;
72284;SDS011;60220;53.552;10.092;2023-02-03T02:59:08;16.92;;;6.60;;
72284;SDS011;60220;53.552;10.092;2023-02-03T03:04:17;12.55;;;7.07;;
72284;SDS011;60220;53.552;10.092;2023-02-03T03:06:53;14.18;;;6.47;;
72284;SDS011;60220;53.552;10.092;2023-02-03T03:09:27;12.10;;;6.30;;
72284;SDS011;60220;53.552;10.092;2023-02-03T03:12:00;14.65;;;5.47;;
72284;SDS011;60220;53.552;10.092;2023-02-03T03:14:31;10.98;;;4.57;;
72284;SDS011;60220;53.552;10.092;2023-02-03T03:16:59;13.02;;;5.20;;
72284;SDS011;60220;53.552;10.092;2023-02-03T03:19:30;17.20;;;4.72;;
72284;SDS011;60220;53.552;10.092;2023-02-03T03:22:00;14.45;;;4.75;;
72284;SDS011;60220;53.552;10.092;2023-02-03T03:24:32;9.57;;;4.75;;
72284;SDS011;60220;53.552;10.092;2023-02-03T03:27:03;15.85;;;5.07;;
72284;SDS011;60220;53.552;10.092;2023-02-03T03:29:37;7.30;;;3.65;;
72284;SDS011;60220;53.552;10.092;2023-02-03T03:32:09;7.10;;;3.00;;
72284;SDS011;60220;53.552;10.092;2023-02-03T03:34:36;14.13;;;3.67;;
72284;SDS011;60220;53.552;10.092;2023-02-03T03:37:04;9.63;;;3.55;;
72284;SDS011;60220;53.552;10.092;2023-02-03T03:39:40;14.32;;;3.42;;
72284;SDS011;60220;53.552;10.092;2023-02-03T03:42:11;7.00;;;2.60;;
72284;SDS011;60220;53.552;10.092;2023-02-03T03:44:49;9.30;;;3.33;;
72284;SDS011;60220;53.552;10.092;2023-02-03T03:47:18;12.10;;;3.28;;
72284;SDS011;60220;53.552;10.092;2023-02-03T03:49:50;6.15;;;2.45;;
72284;SDS011;60220;53.552;10.092;2023-02-03T03:52:20;15.50;;;2.90;;
72284;SDS011;60220;53.552;10.092;2023-02-03T03:54:50;16.92;;;3.15;;
72284;SDS011;60220;53.552;10.092;2023-02-03T03:57:20;9.38;;;3.08;;
72284;SDS011;60220;53.552;10.092;2023-02-03T03:59:49;6.65;;;2.60;;
72284;SDS011;60220;53.552;10.092;2023-02-03T04:02:16;9.25;;;2.83;;
72284;SDS011;60220;53.552;10.092;2023-02-03T04:04:45;6.80;;;2.88;;
72284;SDS011;60220;53.552;10.092;2023-02-03T04:07:13;13.07;;;3.55;;
72284;SDS011;60220;53.552;10.092;2023-02-03T04:09:41;7.63;;;3.45;;
72284;SDS011;60220;53.552;10.092;2023-02-03T04:12:08;8.55;;;3.60;;
72284;SDS011;60220;53.552;10.092;2023-02-03T04:14:40;14.10;;;3.30;;
72284;SDS011;60220;53.552;10.092;2023-02-03T04:17:07;7.15;;;2.88;;
72284;SDS011;60220;53.552;10.092;2023-02-03T04:19:33;9.65;;;3.88;;
72284;SDS011;60220;53.552;10.092;2023-02-03T04:21:59;14.20;;;3.75;;
72284;SDS011;60220;53.552;10.092;2023-02-03T04:24:27;10.68;;;3.97;;
72284;SDS011;60220;53.552;10.092;2023-02-03T04:26:52;9.73;;;2.92;;
72284;SDS011;60220;53.552;10.092;2023-02-03T04:29:21;11.68;;;3.53;;
72284;SDS011;60220;53.552;10.092;2023-02-03T04:31:49;7.43;;;3.00;;
72284;SDS011;60220;53.552;10.092;2023-02-03T04:34:16;9.98;;;4.32;;
72284;SDS011;60220;53.552;10.092;2023-02-03T04:36:42;7.65;;;3.60;;
72284;SDS011;60220;53.552;10.092;2023-02-03T04:39:08;10.98;;;4.45;;
72284;SDS011;60220;53.552;10.092;2023-02-03T04:41:34;11.55;;;4.57;;
72284;SDS011;60220;53.552;10.092;2023-02-03T04:44:00;5.85;;;3.65;;
72284;SDS011;60220;53.552;10.092;2023-02-03T04:46:26;4.20;;;2.70;;
72284;SDS011;60220;53.552;10.092;2023-02-03T04:48:52;10.27;;;3.80;;
72284;SDS011;60220;53.552;10.092;2023-02-03T04:51:18;7.85;;;3.22;;
72284;SDS011;60220;53.552;10.092;2023-02-03T04:53:44;11.88;;;4.57;;
72284;SDS011;60220;53.552;10.092;2023-02-03T04:56:12;7.95;;;3.67;;
72284;SDS011;60220;53.552;10.092;2023-02-03T04:58:43;12.30;;;3.75;;
72284;SDS011;60220;53.552;10.092;2023-02-03T05:01:11;11.15;;;4.80;;
72284;SDS011;60220;53.552;10.092;2023-02-03T05:03:37;9.52;;;3.33;;
72284;SDS011;60220;53.552;10.092;2023-02-03T05:06:03;5.07;;;3.35;;
72284;SDS011;60220;53.552;10.092;2023-02-03T05:08:30;10.65;;;4.32;;
72284;SDS011;60220;53.552;10.092;2023-02-03T05:10:56;16.75;;;4.43;;
72284;SDS011;60220;53.552;10.092;2023-02-03T05:13:22;11.13;;;5.13;;
72284;SDS011;60220;53.552;10.092;2023-02-03T05:15:49;9.10;;;3.97;;
72284;SDS011;60220;53.552;10.092;2023-02-03T05:18:15;13.43;;;5.03;;
72284;SDS011;60220;53.552;10.092;2023-02-03T05:20:43;10.23;;;4.38;;
72284;SDS011;60220;53.552;10.092;2023-02-03T05:23:09;12.82;;;5.15;;
72284;SDS011;60220;53.552;10.092;2023-02-03T05:25:35;9.32;;;4.53;;
72284;SDS011;60220;53.552;10.092;2023-02-03T05:28:01;8.75;;;4.60;;
72284;SDS011;60220;53.552;10.092;2023-02-03T05:30:28;12.93;;;4.28;;
72284;SDS011;60220;53.552;10.092;2023-02-03T05:32:54;14.35;;;4.68;;
72284;SDS011;60220;53.552;10.092;2023-02-03T05:35:20;19.25;;;5.15;;
72284;SDS011;60220;53.552;10.092;2023-02-03T05:37:49;18.25;;;5.00;;
72284;SDS011;60220;53.552;10.092;2023-02-03T05:40:17;15.23;;;4.22;;
72284;SDS011;60220;53.552;10.092;2023-02-03T05:45:27;9.27;;;3.33;;
72284;SDS011;60220;53.552;10.092;2023-02-03T05:47:53;14.27;;;5.15;;
72284;SDS011;60220;53.552;10.092;2023-02-03T05:50:20;10.07;;;4.68;;
72284;SDS011;60220;53.552;10.092;2023-02-03T05:52:47;12.80;;;4.53;;
72284;SDS011;60220;53.552;10.092;2023-02-03T05:55:13;10.75;;;4.70;;
72284;SDS011;60220;53.552;10.092;2023-02-03T05:57:39;11.35;;;4.03;;
72284;SDS011;60220;53.552;10.092;2023-02-03T06:00:05;8.45;;;4.00;;
72284;SDS011;60220;53.552;10.092;2023-02-03T06:02:32;13.90;;;4.20;;
72284;SDS011;60220;53.552;10.092;2023-02-03T06:04:58;6.82;;;3.60;;
72284;SDS011;60220;53.552;10.092;2023-02-03T06:07:25;5.65;;;3.30;;
72284;SDS011;60220;53.552;10.092;2023-02-03T06:09:51;14.20;;;4.00;;
72284;SDS011;60220;53.552;10.092;2023-02-03T06:12:19;15.45;;;4.97;;
72284;SDS011;60220;53.552;10.092;2023-02-03T06:14:48;12.80;;;3.30;;
72284;SDS011;60220;53.552;10.092;2023-02-03T06:17:14;8.98;;;3.67;;
72284;SDS011;60220;53.552;10.092;2023-02-03T06:19:42;11.25;;;3.63;;
72284;SDS011;60220;53.552;10.092;2023-02-03T06:22:08;10.00;;;3.78;;
72284;SDS011;60220;53.552;10.092;2023-02-03T06:24:35;13.25;;;4.03;;
72284;SDS011;60220;53.552;10.092;2023-02-03T06:27:03;5.63;;;2.90;;
72284;SDS011;60220;53.552;10.092;2023-02-03T06:29:29;14.85;;;4.03;;
72284;SDS011;60220;53.552;10.092;2023-02-03T06:31:55;8.43;;;2.92;;
72284;SDS011;60220;53.552;10.092;2023-02-03T06:34:24;9.02;;;3.05;;
72284;SDS011;60220;53.552;10.092;2023-02-03T06:36:50;9.95;;;3.13;;
72284;SDS011;60220;53.552;10.092;2023-02-03T06:39:18;13.60;;;3.30;;
72284;SDS011;60220;53.552;10.092;2023-02-03T06:41:47;13.23;;;3.58;;
72284;SDS011;60220;53.552;10.092;2023-02-03T06:44:15;11.90;;;3.42;;
72284;SDS011;60220;53.552;10.092;2023-02-03T06:46:44;11.82;;;3.15;;
72284;SDS011;60220;53.552;10.092;2023-02-03T06:49:09;16.95;;;3.22;;
72284;SDS011;60220;53.552;10.092;2023-02-03T06:51:35;8.05;;;2.60;;
72284;SDS011;60220;53.552;10.092;2023-02-03T06:54:02;13.38;;;3.67;;
72284;SDS011;60220;53.552;10.092;2023-02-03T06:56:29;5.72;;;2.97;;
72284;SDS011;60220;53.552;10.092;2023-02-03T06:58:56;13.93;;;4.60;;
72284;SDS011;60220;53.552;10.092;2023-02-03T07:01:22;17.45;;;4.15;;
72284;SDS011;60220;53.552;10.092;2023-02-03T07:03:50;20.38;;;4.68;;
72284;SDS011;60220;53.552;10.092;2023-02-03T07:06:18;13.85;;;4.95;;
72284;SDS011;60220;53.552;10.092;2023-02-03T07:08:44;15.82;;;4.82;;
72284;SDS011;60220;53.552;10.092;2023-02-03T07:11:10;8.98;;;3.28;;
72284;SDS011;60220;53.552;10.092;2023-02-03T07:13:36;12.85;;;4.88;;
72284;SDS011;60220;53.552;10.092;2023-02-03T07:16:03;13.70;;;4.50;;
72284;SDS011;60220;53.552;10.092;2023-02-03T07:18:31;14.98;;;4.28;;
72284;SDS011;60220;53.552;10.092;2023-02-03T07:21:56;15.80;;;4.10;;
72284;SDS011;60220;53.552;10.092;2023-02-03T07:25:21;9.98;;;3.63;;
72284;SDS011;60220;53.552;10.092;2023-02-03T07:28:47;10.63;;;2.95;;
72284;SDS011;60220;53.552;10.092;2023-02-03T07:32:12;18.80;;;4.13;;
72284;SDS011;60220;53.552;10.092;2023-02-03T07:35:39;13.52;;;2.75;;
72284;SDS011;60220;53.552;10.092;2023-02-03T07:38:35;12.20;;;3.25;;
72284;SDS011;60220;53.552;10.092;2023-02-03T07:42:00;16.45;;;3.30;;
72284;SDS011;60220;53.552;10.092;2023-02-03T07:45:26;10.57;;;2.97;;
72284;SDS011;60220;53.552;10.092;2023-02-03T07:48:51;8.90;;;2.63;;
72284;SDS011;60220;53.552;10.092;2023-02-03T07:52:18;11.68;;;3.22;;
72284;SDS011;60220;53.552;10.092;2023-02-03T07:55:43;13.17;;;3.20;;
72284;SDS011;60220;53.552;10.092;2023-02-03T07:59:07;11.13;;;3.60;;
72284;SDS011;60220;53.552;10.092;2023-02-03T08:02:35;11.23;;;2.72;;
72284;SDS011;60220;53.552;10.092;2023-02-03T08:06:01;21.55;;;4.18;;
72284;SDS011;60220;53.552;10.092;2023-02-03T08:09:25;14.63;;;2.88;;
72284;SDS011;60220;53.552;10.092;2023-02-03T08:12:14;26.50;;;3.53;;
72284;SDS011;60220;53.552;10.092;2023-02-03T08:14:42;13.88;;;3.33;;
72284;SDS011;60220;53.552;10.092;2023-02-03T08:17:11;14.43;;;2.30;;
72284;SDS011;60220;53.552;10.092;2023-02-03T08:19:37;18.45;;;3.35;;
72284;SDS011;60220;53.552;10.092;2023-02-03T08:22:06;16.90;;;2.50;;
72284;SDS011;60220;53.552;10.092;2023-02-03T08:24:32;14.95;;;2.83;;
72284;SDS011;60220;53.552;10.092;2023-02-03T08:26:58;17.95;;;2.47;;
72284;SDS011;60220;53.552;10.092;2023-02-03T08:29:25;19.73;;;2.92;;
72284;SDS011;60220;53.552;10.092;2023-02-03T08:31:51;26.02;;;3.03;;
72284;SDS011;60220;53.552;10.092;2023-02-03T08:34:18;11.63;;;1.88;;
72284;SDS011;60220;53.552;10.092;2023-02-03T08:36:46;20.20;;;2.90;;
72284;SDS011;60220;53.552;10.092;2023-02-03T08:39:13;15.70;;;3.05;;
72284;SDS011;60220;53.552;10.092;2023-02-03T08:41:39;12.20;;;2.50;;
72284;SDS011;60220;53.552;10.092;2023-02-03T08:44:05;16.25;;;2.53;;
72284;SDS011;60220;53.552;10.092;2023-02-03T08:46:31;20.40;;;3.72;;
72284;SDS011;60220;53.552;10.092;2023-02-03T08:48:59;21.70;;;2.92;;
72284;SDS011;60220;53.552;10.092;2023-02-03T08:51:26;24.95;;;3.65;;
72284;SDS011;60220;53.552;10.092;2023-02-03T08:53:53;24.30;;;5.30;;
72284;SDS011;60220;53.552;10.092;2023-02-03T08:56:19;26.13;;;4.40;;
72284;SDS011;60220;53.552;10.092;2023-02-03T08:58:45;36.97;;;6.43;;
72284;SDS011;60220;53.552;10.092;2023-02-03T09:01:13;21.45;;;4.15;;
72284;SDS011;60220;53.552;10.092;2023-02-03T09:03:40;38.10;;;5.70;;
72284;SDS011;60220;53.552;10.092;2023-02-03T09:06:07;36.97;;;5.60;;
72284;SDS011;60220;53.552;10.092;2023-02-03T09:08:35;40.25;;;5.22;;
72284;SDS011;60220;53.552;10.092;2023-02-03T09:11:01;32.58;;;5.10;;
72284;SDS011;60220;53.552;10.092;2023-02-03T09:13:33;27.67;;;5.00;;
72284;SDS011;60220;53.552;10.092;2023-02-03T09:15:59;33.63;;;5.57;;
72284;SDS011;60220;53.552;10.092;2023-02-03T09:18:25;31.15;;;5.22;;
72284;SDS011;60220;53.552;10.092;2023-02-03T09:20:51;35.53;;;5.05;;
72284;SDS011;60220;53.552;10.092;2023-02-03T09:23:25;31.15;;;5.15;;
72284;SDS011;60220;53.552;10.092;2023-02-03T09:25:52;30.23;;;5.15;;
72284;SDS011;60220;53.552;10.092;2023-02-03T09:28:18;31.77;;;5.60;;
72284;SDS011;60220;53.552;10.092;2023-02-03T09:30:44;31.27;;;4.60;;
72284;SDS011;60220;53.552;10.092;2023-02-03T09:33:14;30.40;;;4.72;;
72284;SDS011;60220;53.552;10.092;2023-02-03T09:35:40;33.33;;;5.40;;
72284;SDS011;60220;53.552;10.092;2023-02-03T09:38:06;42.50;;;5.53;;
72284;SDS011;60220;53.552;10.092;2023-02-03T09:40:32;37.17;;;5.25;;
72284;SDS011;60220;53.552;10.092;2023-02-03T09:43:15;31.58;;;5.88;;
72284;SDS011;60220;53.552;10.092;2023-02-03T09:46:02;36.50;;;7.30;;
72284;SDS011;60220;53.552;10.092;2023-02-03T09:48:33;34.13;;;6.47;;
72284;SDS011;60220;53.552;10.092;2023-02-03T09:51:03;35.33;;;5.97;;
72284;SDS011;60220;53.552;10.092;2023-02-03T09:53:33;34.95;;;5.97;;
72284;SDS011;60220;53.552;10.092;2023-02-03T09:56:11;41.88;;;6.35;;
72284;SDS011;60220;53.552;10.092;2023-02-03T09:58:50;41.13;;;5.88;;
72284;SDS011;60220;53.552;10.092;2023-02-03T10:01:17;38.72;;;5.80;;
72284;SDS011;60220;53.552;10.092;2023-02-03T10:03:47;43.88;;;8.55;;
72284;SDS011;60220;53.552;10.092;2023-02-03T10:09:02;39.03;;;6.35;;
72284;SDS011;60220;53.552;10.092;2023-02-03T10:11:52;40.45;;;6.72;;
72284;SDS011;60220;53.552;10.092;2023-02-03T10:14:34;45.35;;;7.53;;
72284;SDS011;60220;53.552;10.092;2023-02-03T10:17:17;49.50;;;7.18;;
72284;SDS011;60220;53.552;10.092;2023-02-03T10:19:54;42.55;;;6.88;;
72284;SDS011;60220;53.552;10.092;2023-02-03T10:22:24;38.55;;;6.32;;
72284;SDS011;60220;53.552;10.092;2023-02-03T10:24:54;53.55;;;8.40;;
72284;SDS011;60220;53.552;10.092;2023-02-03T10:27:23;44.08;;;7.32;;
72284;SDS011;60220;53.552;10.092;2023-02-03T10:29:52;51.35;;;8.40;;
72284;SDS011;60220;53.552;10.092;2023-02-03T10:32:23;39.97;;;6.78;;
72284;SDS011;60220;53.552;10.092;2023-02-03T10:34:53;51.17;;;8.00;;
72284;SDS011;60220;53.552;10.092;2023-02-03T10:37:23;37.22;;;7.15;;
72284;SDS011;60220;53.552;10.092;2023-02-03T10:39:52;42.25;;;7.47;;
72284;SDS011;60220;53.552;10.092;2023-02-03T10:42:19;42.60;;;6.88;;
72284;SDS011;60220;53.552;10.092;2023-02-03T10:44:48;49.63;;;6.95;;
72284;SDS011;60220;53.552;10.092;2023-02-03T10:47:20;35.05;;;7.07;;
72284;SDS011;60220;53.552;10.092;2023-02-03T10:49:52;33.40;;;6.25;;
72284;SDS011;60220;53.552;10.092;2023-02-03T10:52:25;45.17;;;8.38;;
72284;SDS011;60220;53.552;10.092;2023-02-03T10:54:53;45.17;;;6.70;;
72284;SDS011;60220;53.552;10.092;2023-02-03T10:57:20;37.13;;;6.22;;
72284;SDS011;60220;53.552;10.092;2023-02-03T10:59:47;46.30;;;6.20;;
72284;SDS011;60220;53.552;10.092;2023-02-03T11:02:20;40.15;;;6.63;;
72284;SDS011;60220;53.552;10.092;2023-02-03T11:04:50;40.17;;;6.45;;
72284;SDS011;60220;53.552;10.092;2023-02-03T11:07:34;40.65;;;7.78;;
72284;SDS011;60220;53.552;10.092;2023-02-03T11:10:03;51.72;;;8.23;;
72284;SDS011;60220;53.552;10.092;2023-02-03T11:12:51;45.85;;;8.27;;
72284;SDS011;60220;53.552;10.092;2023-02-03T11:15:42;40.38;;;7.80;;
72284;SDS011;60220;53.552;10.092;2023-02-03T11:18:24;43.45;;;6.97;;
72284;SDS011;60220;53.552;10.092;2023-02-03T11:21:06;47.10;;;7.43;;
72284;SDS011;60220;53.552;10.092;2023-02-03T11:23:35;42.72;;;6.97;;
72284;SDS011;60220;53.552;10.092;2023-02-03T11:26:08;53.05;;;7.32;;
72284;SDS011;60220;53.552;10.092;2023-02-03T11:28:36;34.25;;;7.47;;
72284;SDS011;60220;53.552;10.092;2023-02-03T11:31:16;39.67;;;6.43;;
72284;SDS011;60220;53.552;10.092;2023-02-03T11:33:46;33.25;;;5.65;;
72284;SDS011;60220;53.552;10.092;2023-02-03T11:36:13;37.60;;;7.50;;
72284;SDS011;60220;53.552;10.092;2023-02-03T11:38:39;40.58;;;7.05;;
72284;SDS011;60220;53.552;10.092;2023-02-03T11:41:12;37.50;;;6.32;;
72284;SDS011;60220;53.552;10.092;2023-02-03T11:43:41;34.83;;;5.82;;
72284;SDS011;60220;53.552;10.092;2023-02-03T11:46:07;33.28;;;5.47;;
72284;SDS011;60220;53.552;10.092;2023-02-03T11:48:34;29.35;;;5.90;;
72284;SDS011;60220;53.552;10.092;2023-02-03T11:51:09;49.92;;;6.55;;
72284;SDS011;60220;53.552;10.092;2023-02-03T11:53:49;32.72;;;7.30;;
72284;SDS011;60220;53.552;10.092;2023-02-03T11:56:30;36.55;;;6.63;;
72284;SDS011;60220;53.552;10.092;2023-02-03T12:01:53;40.33;;;6.05;;
72284;SDS011;60220;53.552;10.092;2023-02-03T12:04:34;34.30;;;6.03;;
72284;SDS011;60220;53.552;10.092;2023-02-03T12:10:05;37.38;;;6.05;;
72284;SDS011;60220;53.552;10.092;2023-02-03T12:12:48;39.45;;;6.38;;
72284;SDS011;60220;53.552;10.092;2023-02-03T12:15:23;42.30;;;6.40;;
72284;SDS011;60220;53.552;10.092;2023-02-03T12:18:12;38.88;;;5.55;;
72284;SDS011;60220;53.552;10.092;2023-02-03T12:21:01;29.40;;;5.38;;
72284;SDS011;60220;53.552;10.092;2023-02-03T12:23:41;32.83;;;6.07;;
72284;SDS011;60220;53.552;10.092;2023-02-03T12:26:19;28.70;;;5.18;;
72284;SDS011;60220;53.552;10.092;2023-02-03T12:28:50;25.30;;;5.13;;
72284;SDS011;60220;53.552;10.092;2023-02-03T12:31:24;40.45;;;7.75;;
72284;SDS011;60220;53.552;10.092;2023-02-03T12:33:58;42.20;;;6.63;;
72284;SDS011;60220;53.552;10.092;2023-02-03T12:36:35;52.47;;;9.65;;
72284;SDS011;60220;53.552;10.092;2023-02-03T12:39:07;33.22;;;6.13;;
72284;SDS011;60220;53.552;10.092;2023-02-03T12:41:43;35.10;;;5.35;;
72284;SDS011;60220;53.552;10.092;2023-02-03T12:44:16;34.03;;;5.50;;
72284;SDS011;60220;53.552;10.092;2023-02-03T12:46:47;41.00;;;6.55;;
72284;SDS011;60220;53.552;10.092;2023-02-03T12:49:21;36.95;;;5.82;;
72284;SDS011;60220;53.552;10.092;2023-02-03T12:51:58;35.67;;;6.47;;
72284;SDS011;60220;53.552;10.092;2023-02-03T12:54:33;39.17;;;6.20;;
72284;SDS011;60220;53.552;10.092;2023-02-03T12:57:14;42.38;;;6.28;;
72284;SDS011;60220;53.552;10.092;2023-02-03T12:59:49;35.50;;;6.15;;
72284;SDS011;60220;53.552;10.092;2023-02-03T13:02:26;28.33;;;5.72;;
72284;SDS011;60220;53.552;10.092;2023-02-03T13:04:58;37.67;;;6.68;;
72284;SDS011;60220;53.552;10.092;2023-02-03T13:07:32;31.40;;;5.90;;
72284;SDS011;60220;53.552;10.092;2023-02-03T13:10:05;40.72;;;5.93;;
72284;SDS011;60220;53.552;10.092;2023-02-03T13:12:44;35.22;;;6.43;;
72284;SDS011;60220;53.552;10.092;2023-02-03T13:15:18;36.75;;;6.28;;
72284;SDS011;60220;53.552;10.092;2023-02-03T13:17:51;41.13;;;6.78;;
72284;SDS011;60220;53.552;10.092;2023-02-03T13:20:23;32.10;;;5.47;;
72284;SDS011;60220;53.552;10.092;2023-02-03T13:22:51;38.85;;;6.15;;
72284;SDS011;60220;53.552;10.092;2023-02-03T13:25:19;35.22;;;6.00;;
72284;SDS011;60220;53.552;10.092;2023-02-03T13:27:49;35.33;;;6.40;;
72284;SDS011;60220;53.552;10.092;2023-02-03T13:30:31;30.60;;;5.50;;
72284;SDS011;60220;53.552;10.092;2023-02-03T13:33:17;37.60;;;5.95;;
72284;SDS011;60220;53.552;10.092;2023-02-03T13:38:43;35.13;;;4.80;;
72284;SDS011;60220;53.552;10.092;2023-02-03T13:41:30;32.33;;;5.70;;
72284;SDS011;60220;53.552;10.092;2023-02-03T13:44:08;34.50;;;5.07;;
72284;SDS011;60220;53.552;10.092;2023-02-03T13:46:40;33.67;;;5.75;;
72284;SDS011;60220;53.552;10.092;2023-02-03T13:49:09;32.58;;;6.45;;
72284;SDS011;60220;53.552;10.092;2023-02-03T13:51:47;34.10;;;5.68;;
72284;SDS011;60220;53.552;10.092;2023-02-03T13:54:19;34.33;;;5.72;;
72284;SDS011;60220;53.552;10.092;2023-02-03T13:56:56;33.42;;;4.85;;
72284;SDS011;60220;53.552;10.092;2023-02-03T13:59:29;33.08;;;6.90;;
72284;SDS011;60220;53.552;10.092;2023-02-03T14:02:28;27.83;;;5.55;;
72284;SDS011;60220;53.552;10.092;2023-02-03T14:17:07;26.40;;;4.82;;
72284;SDS011;60220;53.552;10.092;2023-02-03T14:20:33;23.95;;;4.45;;
72284;SDS011;60220;53.552;10.092;2023-02-03T14:23:05;38.30;;;5.35;;
72284;SDS011;60220;53.552;10.092;2023-02-03T14:25:39;31.10;;;5.38;;
72284;SDS011;60220;53.552;10.092;2023-02-03T14:28:11;41.72;;;6.13;;
72284;SDS011;60220;53.552;10.092;2023-02-03T14:33:43;34.17;;;5.45;;
72284;SDS011;60220;53.552;10.092;2023-02-03T14:36:28;46.58;;;6.93;;
72284;SDS011;60220;53.552;10.092;2023-02-03T14:38:58;31.40;;;6.03;;
72284;SDS011;60220;53.552;10.092;2023-02-03T14:41:33;39.72;;;6.50;;
72284;SDS011;60220;53.552;10.092;2023-02-03T14:44:11;32.35;;;5.13;;
72284;SDS011;60220;53.552;10.092;2023-02-03T14:49:49;33.60;;;6.47;;
72284;SDS011;60220;53.552;10.092;2023-02-03T14:52:43;41.50;;;6.47;;
72284;SDS011;60220;53.552;10.092;2023-02-03T14:58:04;45.90;;;6.53;;
72284;SDS011;60220;53.552;10.092;2023-02-03T15:00:40;41.85;;;6.70;;
72284;SDS011;60220;53.552;10.092;2023-02-03T15:03:15;36.33;;;7.30;;
72284;SDS011;60220;53.552;10.092;2023-02-03T15:05:47;37.15;;;5.47;;
72284;SDS011;60220;53.552;10.092;2023-02-03T15:08:30;31.45;;;5.57;;
72284;SDS011;60220;53.552;10.092;2023-02-03T15:11:13;35.00;;;5.55;;
72284;SDS011;60220;53.552;10.092;2023-02-03T15:13:51;44.17;;;6.80;;
72284;SDS011;60220;53.552;10.092;2023-02-03T15:16:18;43.22;;;7.20;;
72284;SDS011;60220;53.552;10.092;2023-02-03T15:18:52;39.83;;;6.72;;
72284;SDS011;60220;53.552;10.092;2023-02-03T15:23:46;41.45;;;6.82;;
72284;SDS011;60220;53.552;10.092;2023-02-03T15:26:14;20.38;;;4.93;;
72284;SDS011;60220;53.552;10.092;2023-02-03T15:28:42;49.70;;;6.97;;
72284;SDS011;60220;53.552;10.092;2023-02-03T15:31:11;36.20;;;6.25;;
72284;SDS011;60220;53.552;10.092;2023-02-03T15:33:43;41.10;;;6.78;;
72284;SDS011;60220;53.552;10.092;2023-02-03T15:36:19;42.80;;;6.30;;
72284;SDS011;60220;53.552;10.092;2023-02-03T15:38:50;47.72;;;7.25;;
72284;SDS011;60220;53.552;10.092;2023-02-03T15:41:21;43.95;;;7.30;;
72284;SDS011;60220;53.552;10.092;2023-02-03T15:43:48;41.67;;;6.50;;